createdAt,value
2022-11-03T00:01:57.154Z,101069.44
2022-11-03T00:04:23.833Z,101068.06
2022-11-03T00:06:52.569Z,101053.31
2022-11-03T00:09:21.137Z,101065.63
2022-11-03T00:11:50.677Z,101059.06
2022-11-03T00:14:17.831Z,101046.88
2022-11-03T00:16:44.980Z,101052.56
2022-11-03T00:19:12.020Z,101045.75
2022-11-03T00:21:38.805Z,101048.91
2022-11-03T00:24:05.794Z,101036.69
2022-11-03T00:26:34.095Z,101042.13
2022-11-03T00:29:06.057Z,101039.84
2022-11-03T00:31:37.887Z,101040.31
2022-11-03T00:34:05.254Z,101048.56
2022-11-03T00:36:34.373Z,101048.31
2022-11-03T00:39:01.243Z,101040.38
2022-11-03T00:41:28.337Z,101047.59
2022-11-03T00:43:54.998Z,101041.91
2022-11-03T00:46:22.298Z,101037.44
2022-11-03T00:48:49.270Z,101039.91
2022-11-03T00:51:18.810Z,101033.69
2022-11-03T00:53:59.819Z,101039.63
2022-11-03T00:56:32.414Z,101030.94
2022-11-03T00:59:01.820Z,101030.34
2022-11-03T01:01:36.283Z,101017.97
2022-11-03T01:04:24.577Z,101019.84
2022-11-03T01:06:54.308Z,101021.34
2022-11-03T01:09:23.721Z,101019.47
2022-11-03T01:11:52.981Z,101015.84
2022-11-03T01:14:19.941Z,101024.59
2022-11-03T01:16:46.370Z,101015.72
2022-11-03T01:19:12.894Z,101028.13
2022-11-03T01:21:39.484Z,101023.69
2022-11-03T01:24:06.283Z,101021.22
2022-11-03T01:26:32.749Z,101013.81
2022-11-03T01:29:00.513Z,101016.50
2022-11-03T01:31:27.836Z,101013.09
2022-11-03T01:33:56.186Z,101015.25
2022-11-03T01:36:23.200Z,101004.09
2022-11-03T01:38:49.977Z,101002.78
2022-11-03T01:41:21.954Z,100990.66
2022-11-03T01:44:09.172Z,100988.94
2022-11-03T01:46:40.523Z,101001.94
2022-11-03T01:49:15.081Z,100988.50
2022-11-03T01:51:46.206Z,100984.97
2022-11-03T01:54:18.350Z,100978.63
2022-11-03T01:56:46.845Z,100984.19
2022-11-03T01:59:16.588Z,100974.97
2022-11-03T02:01:45.376Z,100956.50
2022-11-03T02:04:19.327Z,100953.44
2022-11-03T02:06:51.071Z,100960.75
2022-11-03T02:09:18.529Z,100949.66
2022-11-03T02:12:13.922Z,100954.38
2022-11-03T02:14:56.258Z,100942.53
2022-11-03T02:17:26.816Z,100940.34
2022-11-03T02:20:01.235Z,100941.13
2022-11-03T02:22:49.412Z,100933.91
2022-11-03T02:25:42.173Z,100927.56
2022-11-03T02:28:09.470Z,100924.78
2022-11-03T02:30:43.981Z,100918.69
2022-11-03T02:33:29.559Z,100915.94
2022-11-03T02:36:03.715Z,100908.91
2022-11-03T02:38:32.203Z,100902.06
2022-11-03T02:41:03.110Z,100906.47
2022-11-03T02:43:30.219Z,100901.06
2022-11-03T02:45:56.694Z,100907.97
2022-11-03T02:48:23.236Z,100906.44
2022-11-03T02:50:49.672Z,100910.44
2022-11-03T02:53:16.683Z,100903.38
2022-11-03T02:55:53.343Z,100902.53
2022-11-03T02:58:38.180Z,100900.19
2022-11-03T03:01:14.801Z,100902.84
2022-11-03T03:03:48.044Z,100909.69
2022-11-03T03:06:24.792Z,100901.13
2022-11-03T03:08:56.172Z,100904.06
2022-11-03T03:11:37.589Z,100908.88
2022-11-03T03:14:16.206Z,100903.19
2022-11-03T03:16:45.324Z,100888.66
2022-11-03T03:19:30.112Z,100883.03
2022-11-03T03:22:01.295Z,100892.63
2022-11-03T03:24:46.814Z,100887.47
2022-11-03T03:27:16.072Z,100876.28
2022-11-03T03:29:53.134Z,100872.91
2022-11-03T03:32:24.267Z,100866.16
2022-11-03T03:34:52.757Z,100869.72
2022-11-03T03:37:21.112Z,100860.78
2022-11-03T03:39:52.470Z,100861.47
2022-11-03T03:42:21.702Z,100856.44
2022-11-03T03:44:50.358Z,100849.66
2022-11-03T03:47:29.961Z,100855.50
2022-11-03T03:49:57.209Z,100841.00
2022-11-03T03:52:24.580Z,100837.50
2022-11-03T03:54:51.915Z,100837.13
2022-11-03T03:57:24.230Z,100837.81
2022-11-03T03:59:50.879Z,100837.28
2022-11-03T04:02:17.444Z,100831.81
2022-11-03T04:04:44.010Z,100827.88
2022-11-03T04:07:29.068Z,100831.78
2022-11-03T04:09:55.560Z,100832.88
2022-11-03T04:12:40.624Z,100832.28
2022-11-03T04:15:26.356Z,100824.63
2022-11-03T04:18:11.091Z,100826.69
2022-11-03T04:21:09.587Z,100823.84
2022-11-03T04:23:36.008Z,100815.59
2022-11-03T04:26:04.202Z,100816.53
2022-11-03T04:28:30.658Z,100807.19
2022-11-03T04:31:01.192Z,100807.97
2022-11-03T04:33:30.010Z,100804.88
2022-11-03T04:35:59.236Z,100814.28
2022-11-03T04:38:27.437Z,100792.84
2022-11-03T04:40:56.190Z,100790.97
2022-11-03T04:43:29.379Z,100786.06
2022-11-03T04:45:55.845Z,100779.28
2022-11-03T04:48:22.925Z,100780.25
2022-11-03T04:50:53.123Z,100770.56
2022-11-03T04:53:21.359Z,100758.09
2022-11-03T04:55:50.333Z,100770.34
2022-11-03T04:58:28.558Z,100764.50
2022-11-03T05:00:59.330Z,100764.66
2022-11-03T05:03:30.979Z,100762.13
2022-11-03T05:05:57.640Z,100759.22
2022-11-03T05:08:24.903Z,100759.66
2022-11-03T05:10:51.345Z,100761.56
2022-11-03T05:13:23.225Z,100760.88
2022-11-03T05:15:52.837Z,100754.53
2022-11-03T05:18:27.288Z,100747.75
2022-11-03T05:21:00.983Z,100747.53
2022-11-03T05:23:30.800Z,100749.91
2022-11-03T05:25:59.095Z,100745.31
2022-11-03T05:28:30.556Z,100748.19
2022-11-03T05:30:57.228Z,100745.00
2022-11-03T05:33:23.670Z,100743.44
2022-11-03T05:35:50.184Z,100739.66
2022-11-03T05:38:20.509Z,100743.78
2022-11-03T05:40:50.501Z,100733.69
2022-11-03T05:43:18.175Z,100745.69
2022-11-03T05:45:44.942Z,100743.03
2022-11-03T05:48:27.874Z,100740.41
2022-11-03T05:50:56.064Z,100734.16
2022-11-03T05:53:28.515Z,100727.75
2022-11-03T05:55:56.980Z,100734.38
2022-11-03T05:58:29.213Z,100731.13
2022-11-03T06:00:57.578Z,100721.84
2022-11-03T06:03:27.418Z,100723.84
2022-11-03T06:05:54.022Z,100734.56
2022-11-03T06:10:58.253Z,100732.44
2022-11-03T06:13:34.731Z,100732.06
2022-11-03T06:16:26.521Z,100727.78
2022-11-03T06:18:53.008Z,100725.09
2022-11-03T06:21:24.476Z,100730.00
2022-11-03T06:23:53.857Z,100725.06
2022-11-03T06:26:27.169Z,100726.66
2022-11-03T06:28:55.239Z,100734.56
2022-11-03T06:31:27.703Z,100733.09
2022-11-03T06:33:55.389Z,100723.13
2022-11-03T06:36:25.968Z,100725.63
2022-11-03T06:38:57.602Z,100724.28
2022-11-03T06:41:27.077Z,100724.06
2022-11-03T06:43:54.150Z,100737.25
2022-11-03T06:46:23.867Z,100738.19
2022-11-03T06:48:52.541Z,100730.88
2022-11-03T06:51:22.258Z,100723.88
2022-11-03T06:53:51.258Z,100728.44
2022-11-03T06:56:26.602Z,100713.94
2022-11-03T06:58:55.370Z,100718.50
2022-11-03T07:01:29.595Z,100712.91
2022-11-03T07:04:23.826Z,100718.59
2022-11-03T07:06:53.541Z,100710.41
2022-11-03T07:09:23.924Z,100706.28
2022-11-03T07:11:57.189Z,100700.75
2022-11-03T07:14:31.733Z,100701.56
2022-11-03T07:17:04.861Z,100703.53
2022-11-03T07:19:38.991Z,100697.25
2022-11-03T07:23:14.125Z,100688.44
2022-11-03T07:26:01.212Z,100684.16
2022-11-03T07:28:38.733Z,100680.41
2022-11-03T07:31:16.917Z,100679.94
2022-11-03T07:33:43.941Z,100673.53
2022-11-03T07:36:18.153Z,100669.50
2022-11-03T07:38:47.955Z,100670.63
2022-11-03T07:41:20.094Z,100665.69
2022-11-03T07:44:10.538Z,100660.81
2022-11-03T07:46:36.997Z,100657.22
2022-11-03T07:49:03.462Z,100651.22
2022-11-03T07:51:45.613Z,100649.81
2022-11-03T07:54:28.616Z,100642.63
2022-11-03T07:57:05.920Z,100640.53
2022-11-03T07:59:39.021Z,100638.31
2022-11-03T08:02:26.884Z,100631.22
2022-11-03T08:04:53.416Z,100637.38
2022-11-03T08:07:19.863Z,100630.88
2022-11-03T08:09:46.329Z,100619.22
2022-11-03T08:12:12.751Z,100612.97
2022-11-03T08:14:39.187Z,100609.66
2022-11-03T08:17:05.728Z,100598.72
2022-11-03T08:19:32.194Z,100600.84
2022-11-03T08:21:58.685Z,100600.78
2022-11-03T08:24:25.178Z,100587.97
2022-11-03T08:26:51.801Z,100584.66
2022-11-03T08:29:18.315Z,100579.50
2022-11-03T08:31:44.909Z,100579.56
2022-11-03T08:34:11.432Z,100570.13
2022-11-03T08:36:37.971Z,100572.38
2022-11-03T08:39:05.251Z,100572.00
2022-11-03T08:41:31.750Z,100568.59
2022-11-03T08:43:58.199Z,100569.91
2022-11-03T08:46:24.695Z,100561.13
2022-11-03T08:48:51.893Z,100558.59
2022-11-03T08:51:18.302Z,100549.41
2022-11-03T08:53:44.905Z,100552.13
2022-11-03T08:56:14.213Z,100552.00
2022-11-03T08:58:42.174Z,100549.88
2022-11-03T09:01:08.630Z,100548.84
2022-11-03T09:03:35.582Z,100541.38
2022-11-03T09:06:02.207Z,100536.06
2022-11-03T09:11:15.197Z,100520.25
2022-11-03T09:13:41.698Z,100503.59
2022-11-03T09:16:08.458Z,100510.78
2022-11-03T09:18:34.893Z,100501.03
2022-11-03T09:21:01.408Z,100510.88
2022-11-03T09:23:27.826Z,100499.81
2022-11-03T09:25:54.235Z,100499.59
2022-11-03T09:28:20.656Z,100500.44
2022-11-03T09:30:47.146Z,100494.41
2022-11-03T09:33:13.608Z,100496.38
2022-11-03T09:35:40.042Z,100495.84
2022-11-03T09:38:08.012Z,100492.78
2022-11-03T09:40:36.010Z,100485.47
2022-11-03T09:43:02.810Z,100488.00
2022-11-03T09:45:29.305Z,100480.56
2022-11-03T09:47:56.508Z,100489.31
2022-11-03T09:50:23.429Z,100475.25
2022-11-03T09:52:52.428Z,100481.41
2022-11-03T09:55:25.413Z,100495.88
2022-11-03T09:58:01.535Z,100485.72
2022-11-03T10:00:28.414Z,100477.34
2022-11-03T10:02:55.722Z,100473.22
2022-11-03T10:05:28.779Z,100470.94
2022-11-03T10:08:02.991Z,100469.09
2022-11-03T10:10:30.365Z,100469.22
2022-11-03T10:12:57.181Z,100469.09
2022-11-03T10:15:25.345Z,100459.28
2022-11-03T10:17:52.057Z,100460.59
2022-11-03T10:20:21.300Z,100459.00
2022-11-03T10:22:52.393Z,100456.53
2022-11-03T10:25:26.512Z,100453.44
2022-11-03T10:27:53.023Z,100440.81
2022-11-03T10:30:19.458Z,100444.44
2022-11-03T10:32:45.871Z,100441.16
2022-11-03T10:35:35.428Z,100438.75
2022-11-03T10:38:22.392Z,100429.66
2022-11-03T10:40:48.983Z,100423.94
2022-11-03T10:43:15.504Z,100422.25
2022-11-03T10:45:41.934Z,100411.84
2022-11-03T10:48:10.811Z,100392.88
2022-11-03T10:50:39.924Z,100381.63
2022-11-03T10:53:16.932Z,100378.56
2022-11-03T10:55:43.968Z,100379.00
2022-11-03T10:58:10.986Z,100376.06
2022-11-03T11:00:37.942Z,100381.75
2022-11-03T11:03:06.376Z,100387.13
2022-11-03T11:05:33.134Z,100389.22
2022-11-03T11:08:00.010Z,100381.69
2022-11-03T11:10:29.130Z,100381.28
2022-11-03T11:13:23.547Z,100376.94
2022-11-03T11:16:16.338Z,100365.91
2022-11-03T11:18:42.708Z,100368.66
2022-11-03T11:21:17.898Z,100357.38
2022-11-03T11:23:46.492Z,100361.47
2022-11-03T11:26:37.398Z,100340.75
2022-11-03T11:29:10.103Z,100347.53
2022-11-03T11:31:40.186Z,100343.13
2022-11-03T11:34:09.766Z,100334.66
2022-11-03T11:36:36.159Z,100331.50
2022-11-03T11:39:04.504Z,100309.50
2022-11-03T11:42:08.534Z,100300.66
2022-11-03T11:44:47.930Z,100300.50
2022-11-03T11:47:33.448Z,100292.38
2022-11-03T11:50:06.252Z,100281.22
2022-11-03T11:53:00.259Z,100274.38
2022-11-03T11:55:38.055Z,100267.38
2022-11-03T11:58:12.543Z,100261.72
2022-11-03T12:00:51.261Z,100256.72
2022-11-03T12:03:22.585Z,100253.19
2022-11-03T12:05:52.706Z,100252.19
2022-11-03T12:08:21.099Z,100242.56
2022-11-03T12:10:55.380Z,100236.19
2022-11-03T12:13:54.286Z,100234.78
2022-11-03T12:16:28.373Z,100230.50
2022-11-03T12:18:55.312Z,100220.31
2022-11-03T12:21:55.660Z,100210.94
2022-11-03T12:24:32.188Z,100205.06
2022-11-03T12:26:59.787Z,100190.44
2022-11-03T12:29:26.640Z,100182.53
2022-11-03T12:31:53.486Z,100182.88
2022-11-03T12:34:19.995Z,100187.56
2022-11-03T12:36:48.018Z,100185.19
2022-11-03T12:39:17.123Z,100184.16
2022-11-03T12:41:43.587Z,100173.19
2022-11-03T12:44:10.052Z,100169.31
2022-11-03T12:46:36.586Z,100161.88
2022-11-03T12:49:03.074Z,100163.72
2022-11-03T12:51:29.749Z,100156.28
2022-11-03T12:53:56.159Z,100152.03
2022-11-03T12:56:22.586Z,100146.44
2022-11-03T12:58:49.032Z,100133.41
2022-11-03T13:01:15.562Z,100122.34
2022-11-03T13:03:43.386Z,100130.09
2022-11-03T13:06:11.615Z,100122.19
2022-11-03T13:08:38.060Z,100122.69
2022-11-03T13:11:25.063Z,100115.03
2022-11-03T13:13:52.532Z,100114.88
2022-11-03T13:16:19.462Z,100117.78
2022-11-03T13:18:45.906Z,100103.97
2022-11-03T13:21:13.411Z,100094.84
2022-11-03T13:23:40.848Z,100086.25
2022-11-03T13:26:07.510Z,100080.59
2022-11-03T13:28:33.957Z,100081.50
2022-11-03T13:31:00.447Z,100089.38
2022-11-03T13:33:26.853Z,100082.88
2022-11-03T13:35:53.367Z,100074.59
2022-11-03T13:38:19.838Z,100072.72
2022-11-03T13:41:08.180Z,100072.31
2022-11-03T13:43:32.639Z,100061.94
2022-11-03T13:46:02.258Z,100062.44
2022-11-03T13:51:17.594Z,100052.19
2022-11-03T13:56:30.645Z,100054.66
2022-11-03T14:01:43.993Z,100045.03
2022-11-03T14:06:57.049Z,100047.06
2022-11-03T14:09:23.992Z,100036.72
2022-11-03T14:12:09.237Z,100034.94
2022-11-03T14:14:35.653Z,100021.91
2022-11-03T14:17:02.125Z,100024.63
2022-11-03T14:19:36.542Z,100018.91
2022-11-03T14:22:06.232Z,100021.47
2022-11-03T14:24:32.682Z,100009.69
2022-11-03T14:26:59.090Z,100013.63
2022-11-03T14:29:25.549Z,100010.81
2022-11-03T14:31:51.966Z,100010.28
2022-11-03T14:34:18.414Z,99997.75
2022-11-03T14:36:44.878Z,99979.56
2022-11-03T14:39:11.291Z,99989.69
2022-11-03T14:41:55.956Z,99987.38
2022-11-03T14:44:22.389Z,99979.28
2022-11-03T14:46:48.843Z,99964.72
2022-11-03T14:49:15.276Z,99951.31
2022-11-03T14:51:41.788Z,99942.19
2022-11-03T14:54:08.249Z,99942.28
2022-11-03T14:56:34.663Z,99927.06
2022-11-03T14:59:01.184Z,99927.25
2022-11-03T15:01:27.945Z,99924.84
2022-11-03T15:03:54.474Z,99917.06
2022-11-03T15:06:21.583Z,99926.53
2022-11-03T15:08:51.951Z,99920.25
2022-11-03T15:11:21.678Z,99913.69
2022-11-03T15:13:49.870Z,99901.34
2022-11-03T15:16:17.957Z,99889.97
2022-11-03T15:18:44.641Z,99888.34
2022-11-03T15:21:11.378Z,99880.66
2022-11-03T15:26:24.715Z,99872.22
2022-11-03T15:28:51.617Z,99865.41
2022-11-03T15:31:18.069Z,99872.44
2022-11-03T15:33:44.489Z,99852.81
2022-11-03T15:36:11.806Z,99848.56
2022-11-03T15:38:38.328Z,99839.28
2022-11-03T15:41:17.160Z,99842.06
2022-11-03T15:43:44.904Z,99849.00
2022-11-03T15:46:11.939Z,99852.22
2022-11-03T15:48:38.962Z,99835.50
2022-11-03T15:51:05.927Z,99842.00
2022-11-03T15:53:32.514Z,99829.41
2022-11-03T15:55:58.977Z,99832.53
2022-11-03T15:58:25.477Z,99828.59
2022-11-03T16:00:52.075Z,99838.91
2022-11-03T16:03:18.622Z,99820.00
2022-11-03T16:05:45.081Z,99837.09
2022-11-03T16:08:11.586Z,99804.63
2022-11-03T16:10:38.243Z,99802.75
2022-11-03T16:13:04.657Z,99794.50
2022-11-03T16:15:31.119Z,99801.06
2022-11-03T16:18:02.630Z,99798.66
2022-11-03T16:20:32.312Z,99800.84
2022-11-03T16:22:58.751Z,99801.59
2022-11-03T16:25:25.267Z,99795.34
2022-11-03T16:27:51.713Z,99802.94
2022-11-03T16:30:18.163Z,99788.16
2022-11-03T16:32:44.896Z,99796.72
2022-11-03T16:35:11.338Z,99780.25
2022-11-03T16:37:37.814Z,99779.06
2022-11-03T16:40:05.338Z,99786.47
2022-11-03T16:42:38.165Z,99759.91
2022-11-03T16:45:15.528Z,99754.75
2022-11-03T16:47:42.022Z,99764.03
2022-11-03T16:50:08.507Z,99760.66
2022-11-03T16:52:34.940Z,99747.22
2022-11-03T16:55:01.347Z,99744.94
2022-11-03T16:57:27.781Z,99748.44
2022-11-03T16:59:54.227Z,99734.66
2022-11-03T17:02:20.655Z,99733.31
2022-11-03T17:04:47.123Z,99736.94
2022-11-03T17:07:13.554Z,99728.50
2022-11-03T17:09:40.024Z,99721.31
2022-11-03T17:12:06.580Z,99725.91
2022-11-03T17:14:33.024Z,99728.09
2022-11-03T17:16:59.430Z,99720.22
2022-11-03T17:19:25.867Z,99707.59
2022-11-03T17:21:52.302Z,99710.63
2022-11-03T17:24:18.950Z,99707.78
2022-11-03T17:26:58.626Z,99701.53
2022-11-03T17:29:54.138Z,99685.63
2022-11-03T17:32:36.941Z,99702.50
2022-11-03T17:35:04.183Z,99698.69
2022-11-03T17:37:30.627Z,99699.78
2022-11-03T17:39:57.166Z,99688.75
2022-11-03T17:42:25.972Z,99698.78
2022-11-03T17:44:55.386Z,99692.41
2022-11-03T17:47:23.660Z,99687.06
2022-11-03T17:49:50.393Z,99683.09
2022-11-03T17:52:26.746Z,99686.47
2022-11-03T17:54:56.673Z,99672.25
2022-11-03T17:57:23.478Z,99663.75
2022-11-03T17:59:52.302Z,99666.44
2022-11-03T18:02:21.925Z,99661.88
2022-11-03T18:04:49.065Z,99654.59
2022-11-03T18:07:26.800Z,99644.53
2022-11-03T18:09:53.709Z,99638.81
2022-11-03T18:12:43.494Z,99620.25
2022-11-03T18:15:17.499Z,99611.09
2022-11-03T18:17:43.959Z,99610.31
2022-11-03T18:20:22.030Z,99605.28
2022-11-03T18:22:48.640Z,99604.06
2022-11-03T18:25:17.462Z,99595.53
2022-11-03T18:27:45.780Z,99598.22
2022-11-03T18:30:16.941Z,99604.41
2022-11-03T18:32:45.617Z,99588.63
2022-11-03T18:35:21.929Z,99593.41
2022-11-03T18:37:48.892Z,99603.47
2022-11-03T18:40:15.622Z,99598.88
2022-11-03T18:42:42.255Z,99587.56
2022-11-03T18:45:17.381Z,99581.53
2022-11-03T18:47:44.126Z,99578.88
2022-11-03T18:50:15.810Z,99586.25
2022-11-03T18:52:44.854Z,99580.53
2022-11-03T18:55:12.701Z,99579.13
2022-11-03T18:57:39.787Z,99572.41
2022-11-03T19:00:27.893Z,99563.06
2022-11-03T19:02:54.293Z,99560.09
2022-11-03T19:05:20.744Z,99550.19
2022-11-03T19:07:49.903Z,99546.75
2022-11-03T19:10:22.281Z,99551.50
2022-11-03T19:12:48.738Z,99559.41
2022-11-03T19:15:20.089Z,99550.97
2022-11-03T19:17:49.273Z,99553.97
2022-11-03T19:20:18.152Z,99551.03
2022-11-03T19:22:46.706Z,99546.94
2022-11-03T19:25:14.581Z,99541.38
2022-11-03T19:27:45.191Z,99534.44
2022-11-03T19:30:15.730Z,99524.88
2022-11-03T19:32:52.012Z,99523.09
2022-11-03T19:35:25.840Z,99516.34
2022-11-03T19:38:01.041Z,99507.78
2022-11-03T19:40:28.485Z,99512.56
2022-11-03T19:42:55.209Z,99508.22
2022-11-03T19:45:23.799Z,99489.09
2022-11-03T19:48:22.609Z,99492.66
2022-11-03T19:50:44.018Z,99488.97
2022-11-03T19:53:23.779Z,99479.41
2022-11-03T19:55:50.455Z,99468.25
2022-11-03T19:58:20.224Z,99465.66
2022-11-03T20:00:47.789Z,99458.38
2022-11-03T20:03:14.439Z,99451.47
2022-11-03T20:05:47.929Z,99445.59
2022-11-03T20:08:19.694Z,99444.44
2022-11-03T20:10:47.836Z,99429.47
2022-11-03T20:13:17.908Z,99436.78
2022-11-03T20:15:44.399Z,99441.22
2022-11-03T20:18:14.880Z,99436.38
2022-11-03T20:20:43.445Z,99434.88
2022-11-03T20:23:38.242Z,99425.44
2022-11-03T20:26:16.175Z,99439.88
2022-11-03T20:28:42.923Z,99434.22
2022-11-03T20:31:11.707Z,99442.38
2022-11-03T20:33:39.540Z,99446.13
2022-11-03T20:36:06.582Z,99450.63
2022-11-03T20:38:33.567Z,99424.84
2022-11-03T20:41:03.858Z,99426.28
2022-11-03T20:43:49.588Z,99421.88
2022-11-03T20:46:23.484Z,99417.41
2022-11-03T20:48:50.478Z,99419.13
2022-11-03T20:51:19.001Z,99409.78
2022-11-03T20:53:45.821Z,99409.25
2022-11-03T20:56:19.813Z,99407.09
2022-11-03T20:58:47.065Z,99403.00
2022-11-03T21:01:16.332Z,99403.25
2022-11-03T21:03:58.973Z,99406.25
2022-11-03T21:06:28.038Z,99410.72
2022-11-03T21:08:55.100Z,99410.78
2022-11-03T21:11:25.088Z,99410.22
2022-11-03T21:13:52.713Z,99413.75
2022-11-03T21:16:37.819Z,99415.44
2022-11-03T21:19:33.291Z,99420.13
2022-11-03T21:22:00.299Z,99435.03
2022-11-03T21:26:53.242Z,99423.31
2022-11-03T21:29:32.949Z,99434.72
2022-11-03T21:32:07.821Z,99431.97
2022-11-03T21:34:34.267Z,99436.56
2022-11-03T21:37:00.663Z,99437.09
2022-11-03T21:39:29.089Z,99437.66
2022-11-03T21:42:14.701Z,99430.22
2022-11-03T21:44:41.459Z,99424.38
2022-11-03T21:47:08.357Z,99427.78
2022-11-03T21:49:43.581Z,99426.09
2022-11-03T21:52:15.409Z,99436.44
2022-11-03T21:54:42.280Z,99424.31
2022-11-03T21:57:11.073Z,99422.19
2022-11-03T21:59:37.654Z,99417.81
2022-11-03T22:02:05.269Z,99427.63
2022-11-03T22:04:31.796Z,99422.06
2022-11-03T22:06:59.196Z,99414.63
2022-11-03T22:09:26.917Z,99423.41
2022-11-03T22:11:54.130Z,99431.69
2022-11-03T22:14:20.668Z,99432.28
2022-11-03T22:16:47.423Z,99413.91
2022-11-03T22:19:36.792Z,99409.72
2022-11-03T22:22:29.024Z,99409.44
2022-11-03T22:25:14.410Z,99411.84
2022-11-03T22:27:41.387Z,99414.81
2022-11-03T22:30:27.021Z,99412.84
2022-11-03T22:32:55.354Z,99417.94
2022-11-03T22:35:41.825Z,99419.06
2022-11-03T22:38:13.504Z,99416.56
2022-11-03T22:41:00.080Z,99413.16
2022-11-03T22:44:03.210Z,99397.72
2022-11-03T22:46:29.873Z,99384.38
2022-11-03T22:48:56.289Z,99388.50
2022-11-03T22:51:22.962Z,99384.16
2022-11-03T22:54:07.974Z,99376.72
2022-11-03T22:56:34.382Z,99371.94
2022-11-03T22:59:00.801Z,99366.06
2022-11-03T23:01:27.796Z,99365.34
2022-11-03T23:03:54.891Z,99356.84
2022-11-03T23:06:35.998Z,99351.50
2022-11-03T23:09:02.723Z,99352.31
2022-11-03T23:11:32.500Z,99349.44
2022-11-03T23:14:08.566Z,99342.25
2022-11-03T23:16:41.335Z,99342.78
2022-11-03T23:19:29.369Z,99340.56
2022-11-03T23:21:56.143Z,99343.22
2022-11-03T23:24:45.137Z,99337.09
2022-11-03T23:27:13.624Z,99332.38
2022-11-03T23:29:40.342Z,99342.03
2022-11-03T23:32:07.080Z,99335.09
2022-11-03T23:34:35.040Z,99345.19
2022-11-03T23:37:02.166Z,99333.47
2022-11-03T23:39:28.618Z,99334.06
2022-11-03T23:41:55.057Z,99333.44
2022-11-03T23:44:21.514Z,99341.50
2022-11-03T23:47:06.449Z,99327.03
2022-11-03T23:49:32.869Z,99319.00
2022-11-03T23:51:59.357Z,99311.53
2022-11-03T23:54:27.166Z,99309.78
2022-11-03T23:57:12.169Z,99304.25
2022-11-03T23:59:38.769Z,99307.47
